createdAt,value
2023-02-28T00:00:48.765Z,18.17
2023-02-28T00:03:17.898Z,20.43
2023-02-28T00:05:46.155Z,18.27
2023-02-28T00:08:14.697Z,19.00
2023-02-28T00:10:43.523Z,17.20
2023-02-28T00:13:12.451Z,16.93
2023-02-28T00:15:40.484Z,14.60
2023-02-28T00:18:08.756Z,15.97
2023-02-28T00:20:36.934Z,16.03
2023-02-28T00:23:05.766Z,17.03
2023-02-28T00:25:33.823Z,16.17
2023-02-28T00:28:02.180Z,16.97
2023-02-28T00:30:31.158Z,17.03
2023-02-28T00:33:00.675Z,16.73
2023-02-28T00:35:29.086Z,17.67
2023-02-28T00:38:02.814Z,16.37
2023-02-28T00:40:31.210Z,15.07
2023-02-28T00:43:01.229Z,17.80
2023-02-28T00:45:29.771Z,18.87
2023-02-28T00:47:57.963Z,19.60
2023-02-28T00:50:26.400Z,20.43
2023-02-28T00:52:55.671Z,18.83
2023-02-28T00:55:24.282Z,19.27
2023-02-28T00:57:53.602Z,20.03
2023-02-28T01:00:23.801Z,19.97
2023-02-28T01:02:52.064Z,17.97
2023-02-28T01:05:20.926Z,19.40
2023-02-28T01:07:49.361Z,18.67
2023-02-28T01:10:23.795Z,15.67
2023-02-28T01:12:52.710Z,17.37
2023-02-28T01:15:20.971Z,18.67
2023-02-28T01:17:49.585Z,17.80
2023-02-28T01:20:18.080Z,17.73
2023-02-28T01:22:46.411Z,16.93
2023-02-28T01:25:17.736Z,19.37
2023-02-28T01:27:46.789Z,19.03
2023-02-28T01:30:15.959Z,19.00
2023-02-28T01:32:44.609Z,18.87
2023-02-28T01:35:12.962Z,17.27
2023-02-28T01:37:42.697Z,16.63
2023-02-28T01:40:12.326Z,14.83
2023-02-28T01:42:41.185Z,15.70
2023-02-28T01:45:22.325Z,16.60
2023-02-28T01:47:54.286Z,14.90
2023-02-28T01:50:27.684Z,13.90
2023-02-28T01:53:00.377Z,15.57
2023-02-28T01:55:31.646Z,14.93
2023-02-28T01:58:04.750Z,16.43
2023-02-28T02:00:33.909Z,15.87
2023-02-28T02:03:10.569Z,16.70
2023-02-28T02:05:41.025Z,16.83
2023-02-28T02:08:14.077Z,17.70
2023-02-28T02:10:46.030Z,17.00
2023-02-28T02:13:36.320Z,18.27
2023-02-28T02:16:22.838Z,18.33
2023-02-28T02:19:06.385Z,16.47
2023-02-28T02:21:40.332Z,16.73
2023-02-28T02:24:38.308Z,16.40
2023-02-28T02:27:20.269Z,15.50
2023-02-28T02:30:17.692Z,13.37
2023-02-28T02:33:05.534Z,13.43
2023-02-28T02:35:51.842Z,14.73
2023-02-28T02:38:27.944Z,12.87
2023-02-28T02:41:19.887Z,12.87
2023-02-28T02:43:53.675Z,12.40
2023-02-28T02:46:34.761Z,12.43
2023-02-28T02:49:06.485Z,13.90
2023-02-28T02:51:35.572Z,14.40
2023-02-28T02:54:09.733Z,12.77
2023-02-28T02:56:40.955Z,13.53
2023-02-28T02:59:11.921Z,13.37
2023-02-28T03:01:44.528Z,13.80
2023-02-28T03:04:16.403Z,13.57
2023-02-28T03:06:44.420Z,15.03
2023-02-28T03:09:12.877Z,15.47
2023-02-28T03:11:42.178Z,13.80
2023-02-28T03:14:38.802Z,14.53
2023-02-28T03:17:34.900Z,13.93
2023-02-28T03:20:34.159Z,13.33
2023-02-28T03:23:08.371Z,14.50
2023-02-28T03:25:57.512Z,15.30
2023-02-28T03:28:46.145Z,14.13
2023-02-28T03:31:18.488Z,14.73
2023-02-28T03:33:57.601Z,15.13
2023-02-28T03:36:32.179Z,14.07
2023-02-28T03:39:07.020Z,13.50
2023-02-28T03:42:11.341Z,13.77
2023-02-28T03:44:48.160Z,14.00
2023-02-28T03:47:25.898Z,14.23
2023-02-28T03:49:59.052Z,13.60
2023-02-28T03:52:30.794Z,12.83
2023-02-28T03:55:07.917Z,12.77
2023-02-28T03:57:45.465Z,13.57
2023-02-28T04:00:21.983Z,13.80
2023-02-28T04:02:53.978Z,13.37
2023-02-28T04:05:26.534Z,13.47
2023-02-28T04:08:08.169Z,14.03
2023-02-28T04:10:38.781Z,13.03
2023-02-28T04:13:10.527Z,13.30
2023-02-28T04:15:38.989Z,13.17
2023-02-28T04:18:11.956Z,14.03
2023-02-28T04:20:40.039Z,13.03
2023-02-28T04:23:11.026Z,12.53
2023-02-28T04:25:41.871Z,13.80
2023-02-28T04:28:12.826Z,13.17
2023-02-28T04:30:42.615Z,13.93
2023-02-28T04:33:10.757Z,13.73
2023-02-28T04:35:39.990Z,12.83
2023-02-28T04:38:08.528Z,14.00
2023-02-28T04:40:37.609Z,14.13
2023-02-28T04:43:17.036Z,14.67
2023-02-28T04:45:46.477Z,13.90
2023-02-28T04:48:15.190Z,14.63
2023-02-28T04:50:43.047Z,15.03
2023-02-28T04:53:11.483Z,15.50
2023-02-28T04:55:41.515Z,14.07
2023-02-28T04:58:10.101Z,14.17
2023-02-28T05:00:39.521Z,13.87
2023-02-28T05:03:07.973Z,13.77
2023-02-28T05:05:41.993Z,13.30
2023-02-28T05:08:10.855Z,14.63
2023-02-28T05:10:43.076Z,14.83
2023-02-28T05:13:14.670Z,14.93
2023-02-28T05:15:42.701Z,13.27
2023-02-28T05:18:13.020Z,13.03
2023-02-28T05:20:42.102Z,13.57
2023-02-28T05:23:12.980Z,13.20
2023-02-28T05:25:42.578Z,13.37
2023-02-28T05:28:11.404Z,13.07
2023-02-28T05:30:42.983Z,13.73
2023-02-28T05:33:13.485Z,13.53
2023-02-28T05:35:45.644Z,13.53
2023-02-28T05:38:14.379Z,13.57
2023-02-28T05:40:42.247Z,14.23
2023-02-28T05:43:13.591Z,12.93
2023-02-28T05:45:41.658Z,12.57
2023-02-28T05:48:09.899Z,13.70
2023-02-28T05:50:37.936Z,13.13
2023-02-28T05:53:06.529Z,13.53
2023-02-28T05:55:34.867Z,13.37
2023-02-28T05:58:03.312Z,14.17
2023-02-28T06:00:32.114Z,13.00
2023-02-28T06:03:03.471Z,13.17
2023-02-28T06:05:33.028Z,12.70
2023-02-28T06:08:01.428Z,13.30
2023-02-28T06:10:33.229Z,13.53
2023-02-28T06:13:05.545Z,13.57
2023-02-28T06:15:33.941Z,12.63
2023-02-28T06:18:06.122Z,12.87
2023-02-28T06:20:36.599Z,14.17
2023-02-28T06:23:07.125Z,13.63
2023-02-28T06:25:36.398Z,13.50
2023-02-28T06:28:07.515Z,12.73
2023-02-28T06:30:35.283Z,12.30
2023-02-28T06:33:06.350Z,12.93
2023-02-28T06:35:34.972Z,11.70
2023-02-28T06:38:03.403Z,11.43
2023-02-28T06:40:35.579Z,11.47
2023-02-28T06:43:04.567Z,11.70
2023-02-28T06:45:32.963Z,11.20
2023-02-28T06:48:04.119Z,12.33
2023-02-28T06:50:34.759Z,12.20
2023-02-28T06:53:02.993Z,11.27
2023-02-28T06:55:31.408Z,11.40
2023-02-28T06:58:00.332Z,11.30
2023-02-28T07:00:28.726Z,10.97
2023-02-28T07:02:57.112Z,14.15
2023-02-28T07:05:25.396Z,12.13
2023-02-28T07:07:55.910Z,11.73
2023-02-28T07:10:24.215Z,12.37
2023-02-28T07:12:53.510Z,13.43
2023-02-28T07:15:22.136Z,11.53
2023-02-28T07:17:50.163Z,11.20
2023-02-28T07:20:21.367Z,12.90
2023-02-28T07:22:56.878Z,11.97
2023-02-28T07:25:29.067Z,10.23
2023-02-28T07:28:01.866Z,10.70
2023-02-28T07:30:30.521Z,11.23
2023-02-28T07:32:59.717Z,10.83
2023-02-28T07:35:27.729Z,10.70
2023-02-28T07:38:00.262Z,11.57
2023-02-28T07:40:28.636Z,11.17
2023-02-28T07:42:57.376Z,11.17
2023-02-28T07:45:25.565Z,9.93
2023-02-28T07:47:53.720Z,10.43
2023-02-28T07:50:21.880Z,10.60
2023-02-28T07:52:50.725Z,10.67
2023-02-28T07:55:19.261Z,10.43
2023-02-28T07:57:50.719Z,11.20
2023-02-28T08:00:19.021Z,11.20
2023-02-28T08:02:47.705Z,11.33
2023-02-28T08:05:21.975Z,10.60
2023-02-28T08:07:54.937Z,10.37
2023-02-28T08:10:23.197Z,10.97
2023-02-28T08:12:52.686Z,10.70
2023-02-28T08:15:21.080Z,11.10
2023-02-28T08:17:49.937Z,10.27
2023-02-28T08:20:18.107Z,10.10
2023-02-28T08:22:48.116Z,10.17
2023-02-28T08:25:16.649Z,8.13
2023-02-28T08:27:44.567Z,11.50
2023-02-28T08:30:15.408Z,11.53
2023-02-28T08:32:44.376Z,9.97
2023-02-28T08:35:12.702Z,10.30
2023-02-28T08:37:41.279Z,10.77
2023-02-28T08:40:11.832Z,11.10
2023-02-28T08:42:40.166Z,11.33
2023-02-28T08:45:08.483Z,10.47
2023-02-28T08:47:40.503Z,9.50
2023-02-28T08:50:11.059Z,11.30
2023-02-28T08:52:40.164Z,10.57
2023-02-28T08:55:09.437Z,10.27
2023-02-28T08:57:39.039Z,12.73
2023-02-28T09:00:14.963Z,11.63
2023-02-28T09:02:43.993Z,12.57
2023-02-28T09:05:14.510Z,12.20
2023-02-28T09:07:42.775Z,11.60
2023-02-28T09:10:12.607Z,10.30
2023-02-28T09:12:41.439Z,11.80
2023-02-28T09:15:11.133Z,10.23
2023-02-28T09:17:39.271Z,11.67
2023-02-28T09:20:08.414Z,11.23
2023-02-28T09:22:40.104Z,11.17
2023-02-28T09:25:08.633Z,11.67
2023-02-28T09:27:38.749Z,10.90
2023-02-28T09:30:07.616Z,11.40
2023-02-28T09:32:37.816Z,11.77
2023-02-28T09:35:07.062Z,11.87
2023-02-28T09:37:36.093Z,10.33
2023-02-28T09:40:05.139Z,10.33
2023-02-28T09:42:35.332Z,10.50
2023-02-28T09:45:09.458Z,10.60
2023-02-28T09:47:46.601Z,10.83
2023-02-28T09:50:24.650Z,10.93
2023-02-28T09:52:52.594Z,12.40
2023-02-28T09:55:41.520Z,11.00
2023-02-28T09:58:37.466Z,11.50
2023-02-28T10:01:23.476Z,10.77
2023-02-28T10:03:58.610Z,12.35
2023-02-28T10:06:43.509Z,10.93
2023-02-28T10:09:22.099Z,10.30
2023-02-28T10:11:53.651Z,11.00
2023-02-28T10:14:25.677Z,9.93
2023-02-28T10:17:03.496Z,10.20
2023-02-28T10:19:55.333Z,9.83
2023-02-28T10:22:41.848Z,10.43
2023-02-28T10:25:23.034Z,10.30
2023-02-28T10:27:58.082Z,10.87
2023-02-28T10:30:26.273Z,10.10
2023-02-28T10:32:55.758Z,10.10
2023-02-28T10:35:26.616Z,10.87
2023-02-28T10:37:59.421Z,11.30
2023-02-28T10:40:36.986Z,10.17
2023-02-28T10:43:24.835Z,11.17
2023-02-28T10:46:27.859Z,11.00
2023-02-28T10:49:05.747Z,14.32
2023-02-28T10:51:44.703Z,12.03
2023-02-28T10:54:24.253Z,12.33
2023-02-28T10:57:17.421Z,12.07
2023-02-28T10:59:45.738Z,12.60
2023-02-28T11:02:39.385Z,13.83
2023-02-28T11:05:28.025Z,13.07
2023-02-28T11:08:06.839Z,13.63
2023-02-28T11:10:41.162Z,13.10
2023-02-28T11:13:20.748Z,12.80
2023-02-28T11:15:55.351Z,13.53
2023-02-28T11:18:36.119Z,11.87
2023-02-28T11:21:05.804Z,12.23
2023-02-28T11:23:37.846Z,13.33
2023-02-28T11:26:06.746Z,14.73
2023-02-28T11:28:40.870Z,14.83
2023-02-28T11:31:23.933Z,12.03
2023-02-28T11:33:55.112Z,11.83
2023-02-28T11:36:28.609Z,12.43
2023-02-28T11:39:04.438Z,14.60
2023-02-28T11:41:49.045Z,11.60
2023-02-28T11:44:29.447Z,12.17
2023-02-28T11:47:14.160Z,12.63
2023-02-28T11:49:52.128Z,14.00
2023-02-28T11:52:32.113Z,14.53
2023-02-28T11:55:10.314Z,20.73
2023-02-28T11:58:04.531Z,17.83
2023-02-28T12:00:35.666Z,13.60
2023-02-28T12:03:25.586Z,14.23
2023-02-28T12:06:11.406Z,11.50
2023-02-28T12:08:57.951Z,15.37
2023-02-28T12:11:36.656Z,14.83
2023-02-28T12:14:19.793Z,16.90
2023-02-28T12:16:52.478Z,16.20
2023-02-28T12:19:21.718Z,14.33
2023-02-28T12:22:19.159Z,13.20
2023-02-28T12:24:52.852Z,13.57
2023-02-28T12:27:25.297Z,15.10
2023-02-28T12:30:00.415Z,14.60
2023-02-28T12:32:37.091Z,13.33
2023-02-28T12:35:08.533Z,13.17
2023-02-28T12:37:46.381Z,13.10
2023-02-28T12:40:18.963Z,13.43
2023-02-28T12:42:51.086Z,12.60
2023-02-28T12:45:25.683Z,14.43
2023-02-28T12:48:02.138Z,12.30
2023-02-28T12:50:35.363Z,15.20
2023-02-28T12:53:24.722Z,13.77
2023-02-28T12:56:21.660Z,13.83
2023-02-28T12:58:53.186Z,11.80
2023-02-28T13:01:31.452Z,13.30
2023-02-28T13:04:37.423Z,12.43
2023-02-28T13:07:11.640Z,11.90
2023-02-28T13:09:41.141Z,11.63
2023-02-28T13:12:16.508Z,10.83
2023-02-28T13:14:47.918Z,10.07
2023-02-28T13:17:23.287Z,10.97
2023-02-28T13:19:55.376Z,10.23
2023-02-28T13:22:27.226Z,9.90
2023-02-28T13:24:59.162Z,10.80
2023-02-28T13:28:02.200Z,10.50
2023-02-28T13:31:00.770Z,10.63
2023-02-28T13:33:36.259Z,9.93
2023-02-28T13:36:19.703Z,9.83
2023-02-28T13:38:49.237Z,9.70
2023-02-28T13:41:32.842Z,10.40
2023-02-28T13:44:04.984Z,8.60
2023-02-28T13:46:36.223Z,8.90
2023-02-28T13:49:33.614Z,8.70
2023-02-28T13:52:07.070Z,9.60
2023-02-28T13:54:57.429Z,8.87
2023-02-28T13:57:56.392Z,8.47
2023-02-28T14:00:59.796Z,7.87
2023-02-28T14:03:47.040Z,8.23
2023-02-28T14:06:20.542Z,8.23
2023-02-28T14:08:57.667Z,8.47
2023-02-28T14:11:37.123Z,8.80
2023-02-28T14:14:07.942Z,7.63
2023-02-28T14:16:45.850Z,8.17
2023-02-28T14:19:29.091Z,8.87
2023-02-28T14:22:10.950Z,10.00
2023-02-28T14:25:17.541Z,10.10
2023-02-28T14:28:27.234Z,10.93
2023-02-28T14:31:05.010Z,11.57
2023-02-28T14:33:44.114Z,12.47
2023-02-28T14:36:20.700Z,11.80
2023-02-28T14:39:06.607Z,12.50
2023-02-28T14:41:40.331Z,9.70
2023-02-28T14:44:19.754Z,13.90
2023-02-28T14:46:51.835Z,10.33
2023-02-28T14:49:28.092Z,10.57
2023-02-28T14:52:18.560Z,12.97
2023-02-28T14:54:46.635Z,11.33
2023-02-28T14:57:32.662Z,10.90
2023-02-28T15:00:15.245Z,10.63
2023-02-28T15:02:44.611Z,10.23
2023-02-28T15:05:18.291Z,12.20
2023-02-28T15:07:47.691Z,13.57
2023-02-28T15:10:24.914Z,13.37
2023-02-28T15:13:09.580Z,11.60
2023-02-28T15:16:04.464Z,12.47
2023-02-28T15:18:37.883Z,10.33
2023-02-28T15:21:13.149Z,9.53
2023-02-28T15:23:43.965Z,11.47
2023-02-28T15:26:22.013Z,10.07
2023-02-28T15:28:59.969Z,11.63
2023-02-28T15:31:55.354Z,11.47
2023-02-28T15:34:45.341Z,12.30
2023-02-28T15:37:32.016Z,13.50
2023-02-28T15:40:11.901Z,13.48
2023-02-28T15:42:45.594Z,11.47
2023-02-28T15:45:39.608Z,11.53
2023-02-28T15:48:29.537Z,11.33
2023-02-28T15:51:04.226Z,13.00
2023-02-28T15:54:03.105Z,14.50
2023-02-28T15:56:48.343Z,12.57
2023-02-28T15:59:22.984Z,15.13
2023-02-28T16:02:14.918Z,15.53
2023-02-28T16:05:12.250Z,15.50
2023-02-28T16:07:44.956Z,14.73
2023-02-28T16:10:15.840Z,14.77
2023-02-28T16:12:44.408Z,17.00
2023-02-28T16:15:27.652Z,14.73
2023-02-28T16:17:57.428Z,12.20
2023-02-28T16:20:32.498Z,14.43
2023-02-28T16:23:02.746Z,15.20
2023-02-28T16:25:41.878Z,14.33
2023-02-28T16:28:32.665Z,14.90
2023-02-28T16:31:04.004Z,14.23
2023-02-28T16:33:34.224Z,17.07
2023-02-28T16:36:03.190Z,15.33
2023-02-28T16:38:31.667Z,16.17
2023-02-28T16:41:01.409Z,14.90
2023-02-28T16:43:30.036Z,16.33
2023-02-28T16:46:02.841Z,14.67
2023-02-28T16:48:32.191Z,14.47
2023-02-28T16:51:05.913Z,15.93
2023-02-28T16:53:34.243Z,13.87
2023-02-28T16:56:03.587Z,13.23
2023-02-28T16:58:31.977Z,13.10
2023-02-28T17:01:05.987Z,12.60
2023-02-28T17:03:34.513Z,12.20
2023-02-28T17:06:02.873Z,10.87
2023-02-28T17:08:34.315Z,11.53
2023-02-28T17:11:06.397Z,11.47
2023-02-28T17:13:40.447Z,13.60
2023-02-28T17:16:25.182Z,13.87
2023-02-28T17:18:54.792Z,12.83
2023-02-28T17:21:23.011Z,12.23
2023-02-28T17:23:51.796Z,12.53
2023-02-28T17:26:22.101Z,13.37
2023-02-28T17:28:52.300Z,12.73
2023-02-28T17:31:20.894Z,14.17
2023-02-28T17:33:50.989Z,13.67
2023-02-28T17:36:28.634Z,12.47
2023-02-28T17:38:56.913Z,11.83
2023-02-28T17:41:25.697Z,12.27
2023-02-28T17:43:54.925Z,14.63
2023-02-28T17:46:25.608Z,14.33
2023-02-28T17:48:54.819Z,12.73
2023-02-28T17:51:26.195Z,14.37
2023-02-28T17:53:55.691Z,13.07
2023-02-28T17:56:26.173Z,14.00
2023-02-28T17:58:58.668Z,14.90
2023-02-28T18:01:36.802Z,13.33
2023-02-28T18:04:06.764Z,12.03
2023-02-28T18:06:47.606Z,12.30
2023-02-28T18:09:16.851Z,11.10
2023-02-28T18:11:50.436Z,13.00
2023-02-28T18:14:20.543Z,11.30
2023-02-28T18:16:51.371Z,10.17
2023-02-28T18:19:20.176Z,10.40
2023-02-28T18:21:51.097Z,13.73
2023-02-28T18:24:21.315Z,11.93
2023-02-28T18:26:49.565Z,11.23
2023-02-28T18:29:23.075Z,11.43
2023-02-28T18:31:52.376Z,11.50
2023-02-28T18:34:22.921Z,15.17
2023-02-28T18:36:53.435Z,12.13
2023-02-28T18:39:21.658Z,13.27
2023-02-28T18:41:49.883Z,13.90
2023-02-28T18:44:20.644Z,12.30
2023-02-28T18:46:52.209Z,13.67
2023-02-28T18:49:24.720Z,13.80
2023-02-28T18:51:55.619Z,17.02
2023-02-28T18:54:24.128Z,14.93
2023-02-28T18:56:54.337Z,13.57
2023-02-28T18:59:23.110Z,13.13
2023-02-28T19:01:51.925Z,15.70
2023-02-28T19:04:19.945Z,16.00
2023-02-28T19:06:48.112Z,16.23
2023-02-28T19:09:16.502Z,18.83
2023-02-28T19:11:44.745Z,16.27
2023-02-28T19:14:13.278Z,16.87
2023-02-28T19:16:45.621Z,14.77
2023-02-28T19:19:14.374Z,16.00
2023-02-28T19:21:43.632Z,19.50
2023-02-28T19:24:12.639Z,24.37
2023-02-28T19:26:41.353Z,20.47
2023-02-28T19:29:09.767Z,19.63
2023-02-28T19:31:40.661Z,18.43
2023-02-28T19:34:10.195Z,15.90
2023-02-28T19:36:38.234Z,16.70
2023-02-28T19:39:06.743Z,16.03
2023-02-28T19:41:36.277Z,15.40
2023-02-28T19:44:04.989Z,15.77
2023-02-28T19:46:38.050Z,14.93
2023-02-28T19:49:06.411Z,17.20
2023-02-28T19:51:39.411Z,15.97
2023-02-28T19:54:08.588Z,18.13
2023-02-28T19:56:38.240Z,19.27
2023-02-28T19:59:12.996Z,20.70
2023-02-28T20:01:49.851Z,19.07
2023-02-28T20:04:20.963Z,22.70
2023-02-28T20:06:56.313Z,19.03
2023-02-28T20:09:24.738Z,17.30
2023-02-28T20:11:59.737Z,15.40
2023-02-28T20:14:31.382Z,18.23
2023-02-28T20:16:59.826Z,17.63
2023-02-28T20:19:28.508Z,16.20
2023-02-28T20:21:58.427Z,15.27
2023-02-28T20:24:26.651Z,16.43
2023-02-28T20:26:55.657Z,15.17
2023-02-28T20:29:24.407Z,15.47
2023-02-28T20:31:55.646Z,16.10
2023-02-28T20:34:23.987Z,14.87
2023-02-28T20:36:56.972Z,15.57
2023-02-28T20:39:25.513Z,16.10
2023-02-28T20:41:53.730Z,14.93
2023-02-28T20:44:24.603Z,14.10
2023-02-28T20:46:55.468Z,21.13
2023-02-28T20:49:23.977Z,17.73
2023-02-28T20:51:52.852Z,16.43
2023-02-28T20:54:23.680Z,17.23
2023-02-28T20:56:52.168Z,17.80
2023-02-28T20:59:22.707Z,19.17
2023-02-28T21:01:56.540Z,20.60
2023-02-28T21:04:25.137Z,19.23
2023-02-28T21:06:54.074Z,21.27
2023-02-28T21:09:24.912Z,21.20
2023-02-28T21:11:56.452Z,21.70
2023-02-28T21:14:32.750Z,21.00
2023-02-28T21:17:01.319Z,23.40
2023-02-28T21:19:30.760Z,23.77
2023-02-28T21:21:59.572Z,24.80
2023-02-28T21:24:27.766Z,25.30
2023-02-28T21:26:57.930Z,26.27
2023-02-28T21:29:26.200Z,26.53
2023-02-28T21:31:54.643Z,27.40
2023-02-28T21:34:25.005Z,26.73
2023-02-28T21:36:53.621Z,27.67
2023-02-28T21:39:27.478Z,27.33
2023-02-28T21:41:57.143Z,29.67
2023-02-28T21:44:28.485Z,28.20
2023-02-28T21:47:01.258Z,28.70
2023-02-28T21:49:30.074Z,29.23
2023-02-28T21:52:02.069Z,28.93
2023-02-28T21:54:31.057Z,28.93
2023-02-28T21:57:06.636Z,30.27
2023-02-28T21:59:45.575Z,31.40
2023-02-28T22:02:13.882Z,30.07
2023-02-28T22:04:44.496Z,33.83
2023-02-28T22:07:13.060Z,30.50
2023-02-28T22:09:43.087Z,30.83
2023-02-28T22:12:11.211Z,33.20
2023-02-28T22:14:42.239Z,35.17
2023-02-28T22:17:11.112Z,37.80
2023-02-28T22:19:40.324Z,37.17
2023-02-28T22:22:08.601Z,44.27
2023-02-28T22:24:37.654Z,40.40
2023-02-28T22:27:06.021Z,37.43
2023-02-28T22:29:34.518Z,49.57
2023-02-28T22:32:02.758Z,38.63
2023-02-28T22:34:31.340Z,40.53
2023-02-28T22:37:00.661Z,37.27
2023-02-28T22:39:30.776Z,37.17
2023-02-28T22:42:02.148Z,35.87
2023-02-28T22:44:31.490Z,37.27
2023-02-28T22:47:06.503Z,33.03
2023-02-28T22:49:36.920Z,31.83
2023-02-28T22:52:05.768Z,30.67
2023-02-28T22:54:34.024Z,29.43
2023-02-28T22:57:03.872Z,27.63
2023-02-28T22:59:32.304Z,29.57
2023-02-28T23:02:00.350Z,30.27
2023-02-28T23:04:28.945Z,28.40
2023-02-28T23:07:00.203Z,26.37
2023-02-28T23:09:29.558Z,26.23
2023-02-28T23:12:01.477Z,26.30
2023-02-28T23:14:29.734Z,23.20
2023-02-28T23:16:59.004Z,23.10
2023-02-28T23:19:32.018Z,23.97
2023-02-28T23:22:01.880Z,22.33
2023-02-28T23:24:32.744Z,22.70
2023-02-28T23:27:04.901Z,21.33
2023-02-28T23:29:34.167Z,22.33
2023-02-28T23:32:03.113Z,22.03
2023-02-28T23:34:32.302Z,22.20
2023-02-28T23:37:02.243Z,22.90
2023-02-28T23:39:33.818Z,24.10
2023-02-28T23:42:06.610Z,23.63
2023-02-28T23:44:35.645Z,24.17
2023-02-28T23:47:03.820Z,26.47
2023-02-28T23:49:31.977Z,26.67
2023-02-28T23:52:03.072Z,26.77
2023-02-28T23:54:32.331Z,28.17
2023-02-28T23:57:00.577Z,29.83
2023-02-28T23:59:29.996Z,29.77
